Time;durP1;ratioP1;P1;durP2;ratioP2;P2;SDS_P1;SDS_P2;PMS_P1;PMS_P2;Temp;Humidity;BMP_temperature;BMP_pressure;BME280_temperature;BME280_humidity;BME280_pressure;Samples;Min_cycle;Max_cycle;Signal;HPM_P1;HPM_P2
2023/12/17 00:02:23;;;;;;;2.83;1.00;;;10.50;99.90;;;;;;5027044;28;20127;-72
2023/12/17 00:04:49;;;;;;;8.98;1.80;;;10.50;99.90;;;;;;5013186;28;20025;-72
2023/12/17 00:07:15;;;;;;;1.60;0.43;;;10.50;99.90;;;;;;5027292;28;20385;-73
2023/12/17 00:09:40;;;;;;;1.70;0.60;;;10.50;99.90;;;;;;5014900;28;20502;-72
2023/12/17 00:12:06;;;;;;;3.03;0.95;;;10.50;99.90;;;;;;5025906;28;20048;-71
2023/12/17 00:14:32;;;;;;;1.67;0.50;;;10.60;99.90;;;;;;5012448;28;20033;-72
2023/12/17 00:16:57;;;;;;;8.82;0.98;;;10.60;99.90;;;;;;5023313;28;20037;-72
2023/12/17 00:19:23;;;;;;;8.27;2.33;;;10.60;99.90;;;;;;5010701;28;20410;-72
2023/12/17 00:21:49;;;;;;;1.83;1.10;;;10.50;99.90;;;;;;5029736;28;20081;-71
2023/12/17 00:24:14;;;;;;;7.82;1.63;;;10.60;99.90;;;;;;5028616;28;20090;-71
2023/12/17 00:26:40;;;;;;;1.92;0.50;;;10.50;99.90;;;;;;5005533;28;20059;-71
2023/12/17 00:29:06;;;;;;;4.07;0.73;;;10.50;99.90;;;;;;5028267;28;20094;-71
2023/12/17 00:31:31;;;;;;;5.40;1.13;;;10.60;99.90;;;;;;5012122;28;20539;-71
2023/12/17 00:33:57;;;;;;;2.47;0.60;;;10.60;99.90;;;;;;5023796;28;20034;-71
2023/12/17 00:36:22;;;;;;;4.55;1.10;;;10.50;99.90;;;;;;5016323;28;20064;-72
2023/12/17 00:38:48;;;;;;;5.50;1.05;;;10.60;99.90;;;;;;5021424;28;20051;-71
2023/12/17 00:41:14;;;;;;;4.53;0.95;;;10.60;99.90;;;;;;5013338;28;20143;-70
2023/12/17 00:43:39;;;;;;;4.72;0.70;;;10.60;99.90;;;;;;5025777;28;20519;-72
2023/12/17 00:46:05;;;;;;;1.33;0.75;;;10.60;99.90;;;;;;5010944;28;20796;-73
2023/12/17 00:48:31;;;;;;;1.50;0.50;;;10.60;99.90;;;;;;5026659;28;20040;-73
2023/12/17 00:50:57;;;;;;;2.90;1.27;;;10.60;99.90;;;;;;5015486;28;20135;-73
2023/12/17 00:53:22;;;;;;;6.13;2.05;;;10.60;99.90;;;;;;5028936;28;20456;-73
2023/12/17 00:55:48;;;;;;;3.70;0.75;;;10.60;99.90;;;;;;5015288;28;20025;-71
2023/12/17 00:58:13;;;;;;;1.92;1.17;;;10.60;99.90;;;;;;5027709;28;20041;-72
2023/12/17 01:00:39;;;;;;;0.90;0.70;;;10.60;99.90;;;;;;5025656;28;20029;-73
2023/12/17 01:03:05;;;;;;;1.23;0.40;;;10.50;99.90;;;;;;5013911;28;20063;-72
2023/12/17 01:05:33;;;;;;;2.17;1.85;;;10.50;99.90;;;;;;5026118;28;20069;-72
2023/12/17 01:07:59;;;;;;;0.98;0.85;;;10.50;99.90;;;;;;5008678;28;20040;-72
2023/12/17 01:10:24;;;;;;;4.18;0.80;;;10.50;99.90;;;;;;5025728;28;20037;-72
2023/12/17 01:12:50;;;;;;;1.92;0.77;;;10.40;99.90;;;;;;5007829;28;20049;-71
2023/12/17 01:15:16;;;;;;;7.00;1.33;;;10.40;99.90;;;;;;5026894;28;20067;-72
2023/12/17 01:17:41;;;;;;;1.38;0.65;;;10.40;99.90;;;;;;5015297;28;20575;-72
2023/12/17 01:20:08;;;;;;;5.05;0.90;;;10.40;99.90;;;;;;5019373;28;20068;-71
2023/12/17 01:22:33;;;;;;;3.13;0.75;;;10.30;99.90;;;;;;5016937;28;20064;-72
2023/12/17 01:24:59;;;;;;;3.33;1.02;;;10.40;99.90;;;;;;5026945;28;20682;-73
2023/12/17 01:27:25;;;;;;;2.40;0.43;;;10.40;99.90;;;;;;5007651;28;20410;-74
2023/12/17 01:29:51;;;;;;;3.85;1.10;;;10.40;99.90;;;;;;5026911;28;20144;-72
2023/12/17 01:32:16;;;;;;;1.45;0.30;;;10.40;99.90;;;;;;5013124;28;20379;-71
2023/12/17 01:34:42;;;;;;;0.30;0.30;;;10.50;99.90;;;;;;5028073;28;20120;-71
2023/12/17 01:37:08;;;;;;;2.75;0.90;;;10.40;99.90;;;;;;5014817;28;20354;-71
2023/12/17 01:39:34;;;;;;;11.68;0.82;;;10.50;99.90;;;;;;5023304;28;20083;-71
2023/12/17 01:41:59;;;;;;;0.32;0.28;;;10.40;99.90;;;;;;5028159;28;20045;-72
2023/12/17 01:44:25;;;;;;;5.22;1.38;;;10.40;99.90;;;;;;5012861;28;20071;-72
2023/12/17 01:46:50;;;;;;;3.22;0.82;;;10.40;99.90;;;;;;5023823;28;20281;-71
2023/12/17 01:49:16;;;;;;;2.50;0.70;;;10.40;99.90;;;;;;5015748;28;20037;-73
2023/12/17 01:51:43;;;;;;;2.47;0.65;;;10.50;99.90;;;;;;5027843;28;20131;-72
2023/12/17 01:54:11;;;;;;;3.65;1.02;;;10.50;99.90;;;;;;5011628;28;20018;-73
2023/12/17 01:56:37;;;;;;;2.05;0.52;;;10.40;99.90;;;;;;5035750;28;20481;-72
2023/12/17 01:59:03;;;;;;;6.88;1.02;;;10.40;99.90;;;;;;5014011;28;20091;-72
2023/12/17 02:01:29;;;;;;;8.32;1.58;;;10.40;99.90;;;;;;5024082;28;20377;-72
2023/12/17 02:03:55;;;;;;;10.50;0.98;;;10.40;99.90;;;;;;5017515;28;20045;-72
2023/12/17 02:06:21;;;;;;;2.83;0.38;;;10.40;99.90;;;;;;5024512;28;20036;-73
2023/12/17 02:08:47;;;;;;;2.75;0.45;;;10.50;99.90;;;;;;5012924;28;20650;-73
2023/12/17 02:11:12;;;;;;;5.65;0.95;;;10.50;99.90;;;;;;5032861;28;20037;-73
2023/12/17 02:13:38;;;;;;;3.72;0.50;;;10.60;99.90;;;;;;5011992;28;20517;-72
2023/12/17 02:16:04;;;;;;;9.77;1.10;;;10.50;99.90;;;;;;5030520;28;20033;-72
2023/12/17 02:18:30;;;;;;;4.30;0.68;;;10.60;99.90;;;;;;5017998;28;20021;-72
2023/12/17 02:20:57;;;;;;;3.28;0.70;;;10.50;99.90;;;;;;5029972;28;20032;-71
2023/12/17 02:23:22;;;;;;;5.50;0.85;;;10.50;99.90;;;;;;5034621;28;20029;-72
2023/12/17 02:25:48;;;;;;;5.50;1.40;;;10.40;99.90;;;;;;5018384;28;20111;-72
2023/12/17 02:28:14;;;;;;;2.63;0.52;;;10.30;99.90;;;;;;5035695;28;20600;-72
2023/12/17 02:30:40;;;;;;;4.82;0.88;;;10.40;99.90;;;;;;5042040;28;20995;-72
2023/12/17 02:33:05;;;;;;;2.55;0.45;;;10.40;99.90;;;;;;5033183;28;20060;-72
2023/12/17 02:35:34;;;;;;;4.72;1.98;;;;;;;;;;5016849;28;20017;-72
2023/12/17 02:38:00;;;;;;;5.10;1.42;;;;;;;;;;5031929;28;20386;-72
2023/12/17 02:40:26;;;;;;;2.75;0.55;;;10.50;99.90;;;;;;5013429;28;20034;-72
2023/12/17 02:42:52;;;;;;;2.83;1.15;;;10.40;99.90;;;;;;5035469;28;20043;-71
2023/12/17 02:45:17;;;;;;;3.90;0.50;;;10.40;99.90;;;;;;5017212;28;20402;-72
2023/12/17 02:47:43;;;;;;;1.10;0.47;;;10.40;99.90;;;;;;5025584;28;20044;-71
2023/12/17 02:50:10;;;;;;;0.57;0.57;;;10.40;99.90;;;;;;5017461;28;20068;-72
2023/12/17 02:52:36;;;;;;;3.28;1.23;;;10.50;99.90;;;;;;5028375;28;20107;-72
2023/12/17 02:55:01;;;;;;;5.93;0.70;;;10.40;99.90;;;;;;5015306;28;20033;-71
2023/12/17 02:57:28;;;;;;;5.55;1.17;;;10.30;99.90;;;;;;5032059;28;20029;-72
2023/12/17 02:59:54;;;;;;;2.33;0.75;;;10.30;99.90;;;;;;5014743;28;20548;-72
2023/12/17 03:02:20;;;;;;;2.47;0.73;;;10.30;99.90;;;;;;5028049;28;20041;-72
2023/12/17 03:04:46;;;;;;;5.35;0.68;;;10.30;99.90;;;;;;5028634;28;20041;-72
2023/12/17 03:07:11;;;;;;;1.67;0.93;;;10.30;99.90;;;;;;5015997;28;20044;-73
2023/12/17 03:09:37;;;;;;;5.70;1.02;;;10.30;99.90;;;;;;5026123;28;20038;-73
2023/12/17 03:12:03;;;;;;;3.47;1.58;;;10.30;99.90;;;;;;5017750;28;20033;-71
2023/12/17 03:14:31;;;;;;;2.38;0.88;;;10.30;99.90;;;;;;5014188;28;20025;-72
2023/12/17 03:16:57;;;;;;;1.15;0.90;;;10.30;99.90;;;;;;5023973;28;20138;-71
2023/12/17 03:19:23;;;;;;;4.07;0.82;;;10.30;99.90;;;;;;5012750;28;20120;-72
2023/12/17 03:21:49;;;;;;;8.23;1.45;;;10.20;99.90;;;;;;5026421;28;20155;-73
2023/12/17 03:24:15;;;;;;;4.28;0.88;;;10.20;99.90;;;;;;5008864;28;20501;-73
2023/12/17 03:26:40;;;;;;;5.43;1.48;;;10.20;99.90;;;;;;5029174;28;20103;-72
2023/12/17 03:29:06;;;;;;;9.18;1.55;;;10.30;99.90;;;;;;5014939;28;20064;-72
2023/12/17 03:31:32;;;;;;;2.60;1.13;;;10.30;99.90;;;;;;5023221;28;20033;-72
2023/12/17 03:33:57;;;;;;;10.38;0.90;;;10.40;99.90;;;;;;5013784;28;20037;-72
2023/12/17 03:36:23;;;;;;;2.95;0.90;;;10.40;99.90;;;;;;5029468;28;20455;-72
2023/12/17 03:38:48;;;;;;;6.03;1.15;;;10.40;99.90;;;;;;5024257;28;20506;-72
2023/12/17 03:41:29;;;;;;;1.17;0.70;;;10.40;99.90;;;;;;5014821;28;20039;-71
2023/12/17 03:43:56;;;;;;;3.03;0.90;;;10.40;99.90;;;;;;5024104;28;20029;-71
2023/12/17 03:46:24;;;;;;;4.13;0.85;;;10.30;99.90;;;;;;5012174;28;20026;-72
2023/12/17 03:48:50;;;;;;;6.03;1.25;;;10.40;99.90;;;;;;5029964;28;20379;-71
2023/12/17 03:51:16;;;;;;;5.72;0.85;;;10.40;99.90;;;;;;5008077;28;20087;-72
2023/12/17 03:53:42;;;;;;;2.00;0.70;;;10.40;99.90;;;;;;5030196;28;20069;-71
2023/12/17 03:56:09;;;;;;;2.70;0.80;;;10.30;99.90;;;;;;5022030;28;20407;-72
2023/12/17 03:58:35;;;;;;;0.60;0.40;;;10.30;99.90;;;;;;5024930;28;20922;-71
2023/12/17 04:01:02;;;;;;;4.72;1.50;;;10.30;99.90;;;;;;5018734;28;20056;-73
2023/12/17 04:03:28;;;;;;;6.78;1.20;;;10.20;99.90;;;;;;5026149;28;20032;-72
2023/12/17 04:05:54;;;;;;;9.25;1.10;;;10.10;99.90;;;;;;5011106;28;20058;-73
2023/12/17 04:08:20;;;;;;;6.75;1.63;;;10.10;99.90;;;;;;5023278;28;20041;-72
2023/12/17 04:10:45;;;;;;;2.63;0.90;;;10.10;99.90;;;;;;5013706;28;20612;-73
2023/12/17 04:13:11;;;;;;;7.10;1.08;;;10.10;99.90;;;;;;5026429;28;20037;-73
2023/12/17 04:15:37;;;;;;;2.05;0.98;;;10.10;99.90;;;;;;5016683;28;20151;-73
2023/12/17 04:18:03;;;;;;;4.75;1.10;;;10.10;99.90;;;;;;5021235;28;20025;-71
2023/12/17 04:20:28;;;;;;;5.18;1.40;;;9.90;99.90;;;;;;5013437;28;20079;-72
2023/12/17 04:22:54;;;;;;;6.22;1.42;;;9.90;99.90;;;;;;5024181;28;20052;-72
2023/12/17 04:25:19;;;;;;;1.20;0.68;;;9.80;99.90;;;;;;5025000;28;20044;-73
2023/12/17 04:27:45;;;;;;;7.40;1.10;;;9.80;99.90;;;;;;5022652;28;20080;-72
2023/12/17 04:30:11;;;;;;;6.47;1.55;;;9.90;99.90;;;;;;5029649;28;20497;-72
2023/12/17 04:32:37;;;;;;;5.63;1.08;;;9.90;99.90;;;;;;5013541;28;20060;-72
2023/12/17 04:35:03;;;;;;;8.40;2.05;;;12.90;99.90;;;;;;5028500;28;20497;-72
2023/12/17 04:37:29;;;;;;;2.08;0.95;;;9.90;99.90;;;;;;5010750;28;21184;-72
2023/12/17 04:39:55;;;;;;;7.03;2.30;;;9.80;99.90;;;;;;5028727;28;20441;-72
2023/12/17 04:42:21;;;;;;;10.75;1.20;;;9.90;99.90;;;;;;5018798;28;20730;-72
2023/12/17 04:44:46;;;;;;;8.13;0.82;;;9.90;99.90;;;;;;5023293;28;20614;-72
2023/12/17 04:47:12;;;;;;;3.30;0.95;;;9.90;99.90;;;;;;5011580;28;20116;-72
2023/12/17 04:49:37;;;;;;;8.25;2.85;;;9.90;99.90;;;;;;5030394;28;20766;-71
2023/12/17 04:52:03;;;;;;;2.05;1.85;;;9.80;99.90;;;;;;5009562;28;20033;-72
2023/12/17 04:54:29;;;;;;;11.95;1.73;;;9.80;99.90;;;;;;5029251;28;20152;-73
2023/12/17 04:56:55;;;;;;;8.55;1.98;;;9.70;99.90;;;;;;5014740;28;20037;-72
2023/12/17 04:59:21;;;;;;;5.97;1.30;;;9.80;99.90;;;;;;5026699;28;20025;-72
2023/12/17 05:01:47;;;;;;;13.65;1.80;;;9.70;99.90;;;;;;5016596;28;20032;-73
2023/12/17 05:04:15;;;;;;;12.07;1.55;;;9.70;99.90;;;;;;5027294;28;20112;-72
2023/12/17 05:06:41;;;;;;;25.63;2.03;;;9.60;99.90;;;;;;5048863;28;20539;-72
2023/12/17 05:09:06;;;;;;;8.27;2.28;;;9.50;99.90;;;;;;5029944;28;20045;-71
2023/12/17 05:11:32;;;;;;;1.38;0.80;;;9.40;99.90;;;;;;5025685;28;20107;-71
2023/12/17 05:13:58;;;;;;;3.30;0.98;;;9.40;99.90;;;;;;5016763;28;20041;-72
2023/12/17 05:16:23;;;;;;;0.90;0.85;;;9.30;99.90;;;;;;5031025;28;20036;-73
2023/12/17 05:18:49;;;;;;;1.45;0.52;;;9.20;99.90;;;;;;5006938;28;20068;-72
2023/12/17 05:21:14;;;;;;;11.15;1.45;;;9.20;99.90;;;;;;5022939;28;20522;-72
2023/12/17 05:23:40;;;;;;;0.65;0.65;;;9.10;99.90;;;;;;5011572;28;20113;-72
2023/12/17 05:26:08;;;;;;;2.80;1.77;;;9.00;99.90;;;;;;5023103;28;20752;-72
2023/12/17 05:28:34;;;;;;;11.23;1.73;;;9.00;99.90;;;;;;5018375;28;20053;-72
2023/12/17 05:31:00;;;;;;;1.65;0.60;;;9.00;99.90;;;;;;5026171;28;20555;-72
2023/12/17 05:33:26;;;;;;;0.98;0.90;;;9.00;99.90;;;;;;5016006;28;20057;-72
2023/12/17 05:35:52;;;;;;;14.05;1.83;;;9.00;99.90;;;;;;5028803;28;20026;-72
2023/12/17 05:38:18;;;;;;;3.05;0.77;;;9.10;99.90;;;;;;5005766;28;20037;-71
2023/12/17 05:40:44;;;;;;;5.63;0.88;;;9.00;99.90;;;;;;5024978;28;20021;-71
2023/12/17 05:43:09;;;;;;;13.48;1.67;;;9.00;99.90;;;;;;5017926;28;20432;-71
2023/12/17 05:45:35;;;;;;;7.55;1.90;;;9.10;99.90;;;;;;5026539;28;20037;-72
2023/12/17 05:48:01;;;;;;;2.28;1.05;;;9.00;99.90;;;;;;5030969;28;20112;-71
2023/12/17 05:50:26;;;;;;;2.90;1.27;;;9.00;99.90;;;;;;5013983;28;20048;-72
2023/12/17 05:52:52;;;;;;;5.30;1.77;;;8.90;99.90;;;;;;5021079;28;20492;-73
2023/12/17 05:55:19;;;;;;;5.68;0.93;;;8.90;99.90;;;;;;5014358;28;20045;-71
2023/12/17 05:57:49;;;;;;;3.17;1.20;;;8.90;99.90;;;;;;5025068;28;20646;-70
2023/12/17 06:00:16;;;;;;;2.67;1.52;;;8.90;99.90;;;;;;5012382;28;20496;-72
2023/12/17 06:02:41;;;;;;;1.52;1.20;;;8.80;99.90;;;;;;5027727;28;20033;-73
2023/12/17 06:05:07;;;;;;;3.20;1.38;;;8.80;99.90;;;;;;5014446;28;20454;-72
2023/12/17 06:07:33;;;;;;;3.95;1.70;;;8.90;99.90;;;;;;5024055;28;20029;-72
2023/12/17 06:09:59;;;;;;;3.35;1.38;;;8.90;99.90;;;;;;5017539;28;20036;-72
2023/12/17 06:12:25;;;;;;;5.78;0.85;;;8.90;99.90;;;;;;5023250;28;20121;-71
2023/12/17 06:14:50;;;;;;;8.20;1.55;;;8.90;99.90;;;;;;5016059;28;20017;-72
2023/12/17 06:17:16;;;;;;;3.03;1.50;;;8.90;99.90;;;;;;5024740;28;20037;-71
2023/12/17 06:19:42;;;;;;;4.28;1.42;;;8.90;99.90;;;;;;5010175;28;20040;-71
2023/12/17 06:22:11;;;;;;;3.55;1.38;;;8.90;99.90;;;;;;5023294;28;20434;-72
2023/12/17 06:24:37;;;;;;;1.25;1.00;;;8.90;99.90;;;;;;5008532;28;20034;-72
2023/12/17 06:27:03;;;;;;;6.93;2.03;;;8.90;99.90;;;;;;5026871;28;20041;-72
2023/12/17 06:29:29;;;;;;;3.10;0.80;;;8.90;99.90;;;;;;5023280;28;20485;-72
2023/12/17 06:31:54;;;;;;;2.97;0.65;;;8.90;99.90;;;;;;5014076;28;20045;-71
2023/12/17 06:34:20;;;;;;;7.60;1.38;;;8.80;99.90;;;;;;5026689;28;20730;-72
2023/12/17 06:36:46;;;;;;;2.92;1.13;;;8.80;99.90;;;;;;5017084;28;20086;-72
2023/12/17 06:39:11;;;;;;;10.85;2.05;;;8.80;99.90;;;;;;5021575;28;20039;-73
2023/12/17 06:41:44;;;;;;;4.57;1.23;;;8.80;99.90;;;;;;5017911;28;20033;-72
2023/12/17 06:44:10;;;;;;;14.85;1.58;;;8.90;99.90;;;;;;5031663;28;20064;-72
2023/12/17 06:46:35;;;;;;;4.18;1.33;;;8.90;99.90;;;;;;5011793;28;20121;-73
2023/12/17 06:49:01;;;;;;;1.23;1.13;;;8.90;99.90;;;;;;5028219;28;20449;-72
2023/12/17 06:51:26;;;;;;;0.77;0.65;;;8.90;99.90;;;;;;5010967;28;20102;-72
2023/12/17 06:53:52;;;;;;;1.25;0.85;;;8.90;99.90;;;;;;5023712;28;20029;-71
2023/12/17 06:56:19;;;;;;;3.10;1.75;;;8.90;99.90;;;;;;5016317;28;20501;-72
2023/12/17 06:58:45;;;;;;;5.47;1.50;;;8.90;99.90;;;;;;5028105;28;20064;-73
2023/12/17 07:01:12;;;;;;;7.75;1.27;;;8.90;99.90;;;;;;5016857;28;20034;-72
2023/12/17 07:03:37;;;;;;;8.48;0.70;;;8.90;99.90;;;;;;5030718;28;20032;-71
2023/12/17 07:06:04;;;;;;;7.43;1.65;;;8.90;99.90;;;;;;5013764;28;20531;-72
2023/12/17 07:08:29;;;;;;;2.78;1.45;;;8.80;99.90;;;;;;5025330;28;20033;-72
2023/12/17 07:10:55;;;;;;;1.10;0.95;;;8.90;99.90;;;;;;5020522;28;20372;-72
2023/12/17 07:13:21;;;;;;;4.55;1.63;;;8.90;99.90;;;;;;5027858;28;20035;-72
2023/12/17 07:15:46;;;;;;;1.83;0.88;;;8.90;99.90;;;;;;5033353;28;20021;-72
2023/12/17 07:18:12;;;;;;;6.25;1.27;;;8.90;99.90;;;;;;5011520;28;20329;-72
2023/12/17 07:20:38;;;;;;;0.93;0.93;;;9.00;99.90;;;;;;5027464;28;20041;-71
2023/12/17 07:23:03;;;;;;;11.80;1.63;;;9.10;99.90;;;;;;5014946;28;20037;-72
2023/12/17 07:25:29;;;;;;;1.23;0.95;;;9.00;99.90;;;;;;5025420;28;20124;-72
2023/12/17 07:27:55;;;;;;;3.10;1.50;;;9.10;99.90;;;;;;5016248;28;20059;-72
2023/12/17 07:30:21;;;;;;;5.30;1.60;;;9.00;99.90;;;;;;5028753;28;20030;-72
2023/12/17 07:32:47;;;;;;;3.55;0.80;;;9.00;99.90;;;;;;5012028;28;20037;-71
2023/12/17 07:35:14;;;;;;;3.72;1.33;;;9.00;99.90;;;;;;5030306;28;20694;-72
2023/12/17 07:37:40;;;;;;;7.05;1.30;;;9.10;99.90;;;;;;5015442;28;20111;-72
2023/12/17 07:40:06;;;;;;;6.78;2.28;;;9.20;99.90;;;;;;5023423;28;20029;-72
2023/12/17 07:42:32;;;;;;;6.40;1.52;;;9.30;99.90;;;;;;5025394;28;20025;-71
2023/12/17 07:44:58;;;;;;;3.45;1.60;;;9.40;99.90;;;;;;5051890;28;20431;-72
2023/12/17 07:47:23;;;;;;;3.55;1.35;;;9.50;99.90;;;;;;5042451;28;20037;-72
2023/12/17 07:49:49;;;;;;;1.65;1.10;;;9.50;99.90;;;;;;5034909;28;20540;-72
2023/12/17 07:52:15;;;;;;;10.07;1.65;;;9.50;99.90;;;;;;5020856;28;20127;-72
2023/12/17 07:54:40;;;;;;;2.75;0.85;;;9.50;99.90;;;;;;5022590;28;20083;-72
2023/12/17 07:57:08;;;;;;;3.45;1.55;;;9.50;99.90;;;;;;5032186;28;20053;-71
2023/12/17 07:59:33;;;;;;;7.57;1.75;;;9.50;99.90;;;;;;5020056;28;20654;-71
2023/12/17 08:01:59;;;;;;;5.85;1.10;;;9.50;99.90;;;;;;5034320;28;20040;-72
2023/12/17 08:04:25;;;;;;;7.68;1.52;;;9.50;99.90;;;;;;5017863;28;20057;-73
2023/12/17 08:06:50;;;;;;;6.90;1.27;;;9.60;99.90;;;;;;5023350;28;20732;-72
2023/12/17 08:09:16;;;;;;;1.88;1.20;;;9.60;99.90;;;;;;4999490;28;20040;-72
2023/12/17 08:11:44;;;;;;;3.25;1.00;;;9.60;99.90;;;;;;5028042;28;20107;-72
2023/12/17 08:14:09;;;;;;;5.65;1.65;;;9.60;99.90;;;;;;5016312;28;20035;-74
2023/12/17 08:16:35;;;;;;;0.98;0.95;;;9.60;99.90;;;;;;5016708;28;20026;-73
2023/12/17 08:19:01;;;;;;;2.40;1.20;;;9.60;99.90;;;;;;5010929;28;20413;-72
2023/12/17 08:21:26;;;;;;;4.22;1.48;;;9.60;99.90;;;;;;5027567;28;20481;-74
2023/12/17 08:23:52;;;;;;;1.23;1.02;;;9.70;99.90;;;;;;5014530;28;20064;-73
2023/12/17 08:26:19;;;;;;;3.30;1.70;;;9.60;99.90;;;;;;5024763;28;20545;-71
2023/12/17 08:28:44;;;;;;;4.43;1.98;;;9.70;99.90;;;;;;5014348;28;20049;-72
2023/12/17 08:31:10;;;;;;;10.13;3.08;;;9.60;99.90;;;;;;5027272;28;20370;-72
2023/12/17 08:33:36;;;;;;;12.70;3.03;;;9.60;99.90;;;;;;5020421;28;20146;-72
2023/12/17 08:36:02;;;;;;;5.97;2.78;;;9.70;99.90;;;;;;5024197;28;20222;-72
2023/12/17 08:38:28;;;;;;;4.68;1.25;;;9.70;99.90;;;;;;5028666;28;20482;-72
2023/12/17 08:40:54;;;;;;;2.85;1.02;;;9.70;99.90;;;;;;5012952;28;20036;-72
2023/12/17 08:43:20;;;;;;;2.50;2.17;;;9.80;99.90;;;;;;5030874;28;20045;-73
2023/12/17 08:45:46;;;;;;;7.78;0.98;;;9.80;99.90;;;;;;5013280;28;20048;-71
2023/12/17 08:48:11;;;;;;;11.75;1.45;;;9.80;99.90;;;;;;5029780;28;20041;-72
2023/12/17 08:50:37;;;;;;;2.10;1.40;;;9.80;99.90;;;;;;5019006;28;20033;-72
2023/12/17 08:53:03;;;;;;;6.35;1.95;;;9.80;99.90;;;;;;5024552;28;20072;-72
2023/12/17 08:55:28;;;;;;;1.40;1.00;;;9.80;99.90;;;;;;5014425;28;20497;-72
2023/12/17 08:57:54;;;;;;;5.63;1.23;;;9.70;99.90;;;;;;5029215;28;20029;-72
2023/12/17 09:00:19;;;;;;;5.00;1.30;;;9.80;99.90;;;;;;5010125;28;21075;-72
2023/12/17 09:02:45;;;;;;;7.68;1.75;;;9.80;99.90;;;;;;5029576;28;20033;-71
2023/12/17 09:05:12;;;;;;;6.35;1.60;;;9.70;99.90;;;;;;5012770;28;20036;-72
2023/12/17 09:07:38;;;;;;;5.63;1.63;;;9.80;99.90;;;;;;5024178;28;20125;-72
2023/12/17 09:10:04;;;;;;;17.17;2.28;;;9.70;99.90;;;;;;5012964;28;20036;-73
2023/12/17 09:12:30;;;;;;;11.57;1.55;;;9.80;99.90;;;;;;5024598;28;20033;-72
2023/12/17 09:14:56;;;;;;;3.47;1.60;;;9.90;99.90;;;;;;5024212;28;20039;-72
2023/12/17 09:17:21;;;;;;;6.60;1.25;;;9.90;99.90;;;;;;5015791;28;20037;-72
2023/12/17 09:19:47;;;;;;;5.05;2.40;;;9.90;99.90;;;;;;5026957;28;20037;-73
2023/12/17 09:22:13;;;;;;;3.70;1.38;;;9.90;99.90;;;;;;5013785;28;20382;-72
2023/12/17 09:24:40;;;;;;;3.28;1.27;;;9.90;99.90;;;;;;5028137;28;20390;-73
2023/12/17 09:27:05;;;;;;;6.90;2.95;;;9.90;99.90;;;;;;5008473;28;20037;-73
2023/12/17 09:29:32;;;;;;;9.50;2.15;;;9.90;99.90;;;;;;5025687;28;20094;-74
2023/12/17 09:31:58;;;;;;;10.52;3.67;;;10.00;99.90;;;;;;5012126;28;20044;-72
2023/12/17 09:34:24;;;;;;;6.15;1.58;;;10.00;99.90;;;;;;5026385;28;20022;-72
2023/12/17 09:36:49;;;;;;;5.13;1.23;;;10.00;99.90;;;;;;5016816;28;20040;-73
2023/12/17 09:39:15;;;;;;;3.67;1.42;;;10.00;99.90;;;;;;5018799;28;20033;-72
2023/12/17 09:41:41;;;;;;;3.53;1.45;;;10.10;99.90;;;;;;5012402;28;20102;-75
2023/12/17 09:44:08;;;;;;;4.10;1.15;;;10.10;99.90;;;;;;5030975;28;20505;-71
2023/12/17 09:46:35;;;;;;;5.15;1.48;;;10.10;99.90;;;;;;5010693;28;20041;-71
2023/12/17 09:49:01;;;;;;;3.72;1.60;;;10.10;99.90;;;;;;5028395;28;20196;-72
2023/12/17 09:51:28;;;;;;;3.80;1.58;;;10.20;99.90;;;;;;5014567;28;20042;-74
2023/12/17 09:53:56;;;;;;;3.42;1.90;;;10.20;99.90;;;;;;5025090;28;20026;-71
2023/12/17 09:56:22;;;;;;;4.20;2.10;;;10.20;99.90;;;;;;5021886;28;20021;-73
2023/12/17 09:58:48;;;;;;;5.03;1.90;;;10.20;99.90;;;;;;5020492;28;20029;-73
2023/12/17 10:01:13;;;;;;;7.20;1.10;;;10.30;99.90;;;;;;5022605;28;20048;-70
2023/12/17 10:03:40;;;;;;;6.43;1.58;;;10.30;99.90;;;;;;5008930;28;20168;-71
2023/12/17 10:06:06;;;;;;;3.22;0.88;;;10.30;99.90;;;;;;5021780;28;20120;-72
2023/12/17 10:08:32;;;;;;;3.58;1.90;;;10.40;99.90;;;;;;5012998;28;20036;-72
2023/12/17 10:10:58;;;;;;;1.17;0.88;;;10.50;99.90;;;;;;5023997;28;20209;-71
2023/12/17 10:13:23;;;;;;;2.38;1.30;;;10.40;99.90;;;;;;5010328;28;20090;-71
2023/12/17 10:15:51;;;;;;;2.22;1.48;;;10.40;99.90;;;;;;5027476;28;20061;-73
2023/12/17 10:18:17;;;;;;;2.53;0.98;;;10.50;99.90;;;;;;5013323;28;20041;-72
2023/12/17 10:20:45;;;;;;;2.05;1.20;;;10.70;99.90;;;;;;5051549;28;20089;-72
2023/12/17 10:23:10;;;;;;;5.25;1.50;;;10.60;99.90;;;;;;5023499;28;20033;-71
2023/12/17 10:25:36;;;;;;;3.17;1.40;;;10.60;99.90;;;;;;5026103;28;20041;-72
2023/12/17 10:28:02;;;;;;;4.55;1.30;;;10.60;99.90;;;;;;5011684;28;20049;-71
2023/12/17 10:30:29;;;;;;;5.45;1.20;;;;;;;;;;5025856;28;20124;-73
2023/12/17 10:32:55;;;;;;;4.22;1.42;;;10.60;99.90;;;;;;5015393;28;20033;-71
2023/12/17 10:35:23;;;;;;;4.90;0.90;;;10.50;99.90;;;;;;5030675;28;20060;-71
2023/12/17 10:37:54;;;;;;;10.60;1.20;;;10.60;99.90;;;;;;5022493;28;20075;-72
2023/12/17 10:40:21;;;;;;;2.88;1.17;;;10.60;99.90;;;;;;5024422;28;20061;-71
2023/12/17 10:42:49;;;;;;;5.72;1.88;;;10.60;99.90;;;;;;5030544;28;20489;-72
2023/12/17 10:45:18;;;;;;;11.70;1.35;;;10.70;99.90;;;;;;5014227;28;20112;-71
2023/12/17 10:47:45;;;;;;;;;;;10.70;99.90;;;;;;5025194;28;20112;-72
2023/12/17 10:50:11;;;;;;;8.70;1.73;;;10.60;99.90;;;;;;5016475;28;19923;-72
2023/12/17 10:52:39;;;;;;;4.32;1.30;;;10.70;99.90;;;;;;5028326;28;20033;-73
2023/12/17 10:55:05;;;;;;;6.05;1.70;;;10.60;99.90;;;;;;5015975;28;20033;-72
2023/12/17 10:57:34;;;;;;;3.60;2.10;;;10.70;99.90;;;;;;5037749;28;20104;-72
2023/12/17 11:00:01;;;;;;;;;;;10.60;99.90;;;;;;5013160;28;20508;-72
2023/12/17 11:02:27;;;;;;;9.88;1.95;;;10.50;99.90;;;;;;5028618;28;20099;-72
2023/12/17 11:04:56;;;;;;;7.57;1.80;;;10.60;99.90;;;;;;5023829;28;20044;-72
2023/12/17 11:07:22;;;;;;;4.18;1.05;;;10.60;99.90;;;;;;5026013;28;20367;-71
2023/12/17 11:09:48;;;;;;;4.10;1.50;;;10.70;99.90;;;;;;5018267;28;20037;-71
2023/12/17 11:12:18;;;;;;;3.60;1.23;;;10.70;99.90;;;;;;5030665;28;20517;-72
2023/12/17 11:14:45;;;;;;;6.25;1.15;;;10.70;99.90;;;;;;5012174;28;20029;-72
2023/12/17 11:17:12;;;;;;;4.80;1.23;;;10.60;99.90;;;;;;5029195;28;20037;-72
2023/12/17 11:19:57;;;;;;;5.00;1.52;;;10.50;99.90;;;;;;5010043;28;20087;-71
2023/12/17 11:22:23;;;;;;;4.43;0.88;;;10.60;99.90;;;;;;5029123;28;20036;-72
2023/12/17 11:24:54;;;;;;;7.38;1.10;;;10.60;99.90;;;;;;5016798;28;20021;-72
2023/12/17 11:27:22;;;;;;;7.78;1.92;;;10.60;99.90;;;;;;5024017;28;20056;-71
2023/12/17 11:29:49;;;;;;;0.98;0.85;;;10.60;99.90;;;;;;5017473;28;20247;-72
2023/12/17 11:32:17;;;;;;;5.18;1.73;;;10.70;99.90;;;;;;5034573;28;20468;-71
2023/12/17 11:34:48;;;;;;;1.17;0.98;;;10.70;99.90;;;;;;5010122;28;20037;-71
2023/12/17 11:37:19;;;;;;;7.43;1.67;;;10.70;99.90;;;;;;5027733;28;20030;-71
2023/12/17 11:39:47;;;;;;;12.85;2.22;;;10.70;99.90;;;;;;5019039;28;20127;-71
2023/12/17 11:42:13;;;;;;;4.97;1.85;;;10.60;99.90;;;;;;5020528;28;20036;-73
2023/12/17 11:44:44;;;;;;;8.25;1.67;;;10.60;99.90;;;;;;5027903;28;20090;-71
2023/12/17 11:47:11;;;;;;;5.45;1.65;;;10.50;99.90;;;;;;5012753;28;20044;-71
2023/12/17 11:49:37;;;;;;;2.00;1.60;;;10.50;99.90;;;;;;5027548;28;20047;-72
2023/12/17 11:52:19;;;;;;;5.75;1.10;;;10.50;99.90;;;;;;5014212;28;20511;-71
2023/12/17 11:54:44;;;;;;;5.57;1.65;;;10.50;99.90;;;;;;5023241;28;20189;-72
2023/12/17 11:57:27;;;;;;;4.20;1.45;;;10.60;99.90;;;;;;5018665;28;20544;-73
2023/12/17 11:59:54;;;;;;;7.13;1.35;;;10.60;99.90;;;;;;5027593;28;20044;-72
2023/12/17 12:02:21;;;;;;;2.42;0.95;;;10.60;99.90;;;;;;5013552;28;20458;-73
2023/12/17 12:04:48;;;;;;;3.83;1.23;;;10.60;99.90;;;;;;5028927;28;20041;-73
2023/12/17 12:07:17;;;;;;;3.15;1.00;;;10.50;99.90;;;;;;5010804;28;20021;-73
2023/12/17 12:09:44;;;;;;;5.80;1.55;;;10.50;99.90;;;;;;5031657;28;20131;-73
2023/12/17 12:12:26;;;;;;;13.95;1.20;;;10.50;99.90;;;;;;5017205;28;20029;-73
2023/12/17 12:14:52;;;;;;;17.38;2.63;;;10.60;99.90;;;;;;5026909;28;20017;-73
2023/12/17 12:17:39;;;;;;;1.83;1.50;;;10.50;99.90;;;;;;5017528;28;21274;-72
2023/12/17 12:20:07;;;;;;;3.80;1.13;;;10.50;99.90;;;;;;5024667;28;20438;-72
2023/12/17 12:22:34;;;;;;;2.85;1.70;;;10.50;99.90;;;;;;5011884;28;20501;-72
2023/12/17 12:25:00;;;;;;;8.40;1.50;;;10.50;99.90;;;;;;5030261;28;20068;-72
2023/12/17 12:27:25;;;;;;;13.57;1.83;;;10.50;99.90;;;;;;5010566;28;20881;-72
2023/12/17 12:29:52;;;;;;;4.55;1.38;;;10.50;99.90;;;;;;5029695;28;20131;-72
2023/12/17 12:32:34;;;;;;;4.22;1.70;;;10.50;99.90;;;;;;5019001;28;20116;-72
2023/12/17 12:35:01;;;;;;;4.32;1.23;;;10.50;99.90;;;;;;5022662;28;20029;-72
2023/12/17 12:37:41;;;;;;;2.53;1.35;;;10.50;99.90;;;;;;5015412;28;20190;-72
2023/12/17 12:40:07;;;;;;;1.85;0.93;;;10.50;99.90;;;;;;5023093;28;20032;-72
2023/12/17 12:42:34;;;;;;;2.35;1.10;;;10.40;99.90;;;;;;5017282;28;20029;-72
2023/12/17 12:45:00;;;;;;;6.28;2.65;;;10.50;99.90;;;;;;5033735;28;20059;-72
2023/12/17 12:47:25;;;;;;;1.50;0.95;;;10.50;99.90;;;;;;5012029;28;20472;-72